Time;durP1;ratioP1;P1;durP2;ratioP2;P2;SDS_P1;SDS_P2;PMS_P1;PMS_P2;Temp;Humidity;BMP_temperature;BMP_pressure;BME280_temperature;BME280_humidity;BME280_pressure;Samples;Min_cycle;Max_cycle;Signal;HPM_P1;HPM_P2
2022/01/21 00:01:51;;;;;;;24.07;8.83;;;;;;;-2.01;82.17;98864.48;4312668;81;21545;-94
2022/01/21 00:07:52;;;;;;;18.90;8.13;;;;;;;-1.98;82.37;98868.72;4312974;81;21062;-92
2022/01/21 00:13:55;;;;;;;36.63;11.33;;;;;;;-1.96;82.56;98865.74;4304994;81;22301;-91
2022/01/21 00:32:55;;;;;;;22.07;9.60;;;;;;;-1.96;83.15;98875.91;4300454;81;21645;-92
2022/01/21 00:38:57;;;;;;;23.37;10.13;;;;;;;-1.94;83.24;98879.63;4304251;81;21110;-93
2022/01/21 00:45:15;;;;;;;27.40;10.17;;;;;;;-1.91;83.52;98872.36;4300560;81;21061;-93
2022/01/21 00:51:18;;;;;;;19.70;8.07;;;;;;;-1.90;83.49;98887.36;4300945;81;21207;-91
2022/01/21 00:57:19;;;;;;;25.03;9.83;;;;;;;-1.93;83.87;98900.83;4300335;81;21086;-92
2022/01/21 01:03:25;;;;;;;21.00;8.47;;;;;;;-1.94;83.86;98910.48;4299686;81;21048;-93
2022/01/21 01:09:26;;;;;;;19.20;9.17;;;;;;;-1.99;84.12;98914.05;4181498;84;21105;-93
2022/01/21 01:21:54;;;;;;;18.53;8.00;;;;;;;-2.00;84.62;98917.84;4199088;84;21125;-93
2022/01/21 01:27:53;;;;;;;20.27;7.60;;;;;;;-2.04;84.60;98922.75;4195202;84;21130;-92
2022/01/21 01:34:03;;;;;;;15.50;6.53;;;;;;;-2.06;84.67;98921.70;4192353;84;21117;-91
2022/01/21 01:52:55;;;;;;;19.67;7.20;;;;;;;-2.05;85.04;98919.83;4197145;84;21038;-91
2022/01/21 01:59:00;;;;;;;15.00;6.00;;;;;;;-2.08;84.96;98921.73;4199748;84;21059;-92
2022/01/21 02:05:02;;;;;;;19.77;6.50;;;;;;;-2.08;84.88;98941.84;4193950;84;21069;-92
2022/01/21 02:11:14;;;;;;;9.43;2.97;;;;;;;-2.10;85.12;98950.19;4202790;84;21059;-92
2022/01/21 02:23:24;;;;;;;8.20;1.93;;;;;;;-2.32;83.33;98972.80;4180874;83;21312;-93
2022/01/21 02:29:32;;;;;;;4.33;1.87;;;;;;;-2.44;82.68;98979.69;4232427;83;21045;-92
2022/01/21 02:35:33;;;;;;;7.33;2.03;;;;;;;-2.52;82.16;98979.03;4233044;83;21024;-94
2022/01/21 02:41:44;;;;;;;11.40;2.23;;;;;;;-2.59;82.05;98987.42;4217153;83;21624;-92
2022/01/21 02:47:47;;;;;;;4.63;2.00;;;;;;;-2.63;82.10;98981.03;4173335;84;21554;-93
2022/01/21 02:59:53;;;;;;;8.63;2.70;;;;;;;-2.67;81.73;98992.09;4178842;85;21038;-91
2022/01/21 03:06:00;;;;;;;7.63;2.83;;;;;;;-2.70;81.71;98996.69;4200087;84;21412;-91
2022/01/21 03:12:03;;;;;;;10.83;3.73;;;;;;;-2.70;81.59;99003.39;4186181;84;21095;-91
2022/01/21 03:18:04;;;;;;;10.87;3.57;;;;;;;-2.69;81.34;99015.69;4230975;83;21121;-91
2022/01/21 03:24:11;;;;;;;8.83;3.37;;;;;;;-2.73;81.35;99018.70;4238737;83;21046;-92
2022/01/21 03:30:13;;;;;;;10.47;3.70;;;;;;;-2.81;81.38;99034.61;4239178;83;159153;-93
2022/01/21 03:36:21;;;;;;;9.73;2.97;;;;;;;-2.94;81.50;99036.66;4264521;82;21048;-92
2022/01/21 03:42:29;;;;;;;;;;;;;;;-2.98;82.02;99045.80;4256608;83;21066;-91
2022/01/21 03:48:37;;;;;;;11.23;3.90;;;;;;;-2.95;82.35;99053.80;4255582;83;20183;-94
2022/01/21 03:54:40;;;;;;;8.77;3.60;;;;;;;-2.97;82.71;99055.42;4255739;82;21019;-91
2022/01/21 04:00:54;;;;;;;13.00;3.90;;;;;;;-2.96;82.52;99058.34;4254647;83;21703;-94
2022/01/21 04:07:08;;;;;;;8.43;3.23;;;;;;;-3.02;82.56;99048.78;4262984;83;21093;-91
2022/01/21 04:13:16;;;;;;;9.60;3.12;;;;;;;-3.11;82.51;99062.55;4257609;82;21130;-92
2022/01/21 04:19:21;;;;;;;7.97;3.27;;;;;;;-3.22;82.47;99077.92;4261682;83;21117;-92
2022/01/21 04:25:41;;;;;;;9.27;3.70;;;;;;;-3.30;82.40;99074.52;4270424;83;21099;-92
2022/01/21 04:31:50;;;;;;;8.33;3.37;;;;;;;-3.38;82.24;99075.13;4270409;83;21074;-94
2022/01/21 04:38:05;;;;;;;11.30;3.50;;;;;;;-3.48;82.26;99083.25;4278803;83;21098;-93
2022/01/21 04:50:57;;;;;;;11.33;3.93;;;;;;;-3.64;82.17;99094.37;4260042;82;21066;-93
2022/01/21 04:57:12;;;;;;;12.30;4.40;;;;;;;-3.77;82.21;99090.46;4252315;83;21090;-92
2022/01/21 05:03:26;;;;;;;13.67;5.97;;;;;;;-3.84;82.41;99110.06;4276507;82;21556;-93
2022/01/21 05:09:31;;;;;;;14.97;5.67;;;;;;;-3.87;82.58;99101.78;4278257;83;21707;-92
2022/01/21 05:16:05;;;;;;;11.07;4.67;;;;;;;-3.89;82.69;99110.62;4227766;82;21050;-92
2022/01/21 05:22:06;;;;;;;11.00;4.23;;;;;;;-3.91;82.94;99099.39;4259776;82;22198;-93
2022/01/21 05:28:24;;;;;;;11.27;4.67;;;;;;;-3.96;82.91;99106.14;4263896;83;21059;-94
2022/01/21 05:35:00;;;;;;;13.65;4.90;;;;;;;-4.01;82.99;99106.94;4087273;86;21072;-93
2022/01/21 05:41:54;;;;;;;14.33;5.43;;;;;;;-4.04;82.97;99120.09;4266229;83;21609;-93
2022/01/21 05:48:16;;;;;;;10.47;4.37;;;;;;;-4.03;83.05;99117.14;4253835;83;21070;-93
2022/01/21 05:54:31;;;;;;;14.50;4.90;;;;;;;-3.92;83.04;99117.86;4231205;83;21081;-94
2022/01/21 06:00:58;;;;;;;17.40;5.93;;;;;;;-3.83;82.86;99114.84;4231253;83;21560;-93
2022/01/21 06:07:40;;;;;;;15.73;5.50;;;;;;;-3.75;82.68;99123.63;4256159;83;21552;-93
2022/01/21 06:13:46;;;;;;;14.03;5.77;;;;;;;-3.68;82.91;99134.27;4261597;81;21023;-92
2022/01/21 06:19:52;;;;;;;19.67;7.00;;;;;;;-3.61;82.79;99140.63;4135509;85;21090;-93
2022/01/21 06:25:53;;;;;;;21.33;7.28;;;;;;;-3.56;82.80;99137.92;4145304;84;21071;-93
2022/01/21 06:31:56;;;;;;;15.90;7.17;;;;;;;-3.51;82.98;99147.26;4153513;84;21121;-93
2022/01/21 06:38:00;;;;;;;20.90;6.77;;;;;;;-3.47;83.34;99147.75;4175298;84;21572;-93
2022/01/21 06:44:21;;;;;;;17.73;6.50;;;;;;;-3.45;83.58;99142.93;4148870;84;21540;-94
2022/01/21 06:50:26;;;;;;;13.10;4.67;;;;;;;-3.41;83.78;99151.17;4167512;83;21043;-92
2022/01/21 06:56:45;;;;;;;16.80;5.20;;;;;;;-3.41;84.10;99159.20;4138780;84;21049;-94
2022/01/21 07:02:50;;;;;;;14.37;6.30;;;;;;;-3.41;84.34;99161.35;4158006;83;21674;-93
2022/01/21 07:08:52;;;;;;;19.80;8.03;;;;;;;-3.41;84.81;99154.66;4153614;84;21641;-92
2022/01/21 07:14:55;;;;;;;17.80;7.07;;;;;;;-3.38;84.71;99168.01;4208474;80;21552;-92
2022/01/21 07:21:01;;;;;;;14.70;6.20;;;;;;;-3.36;85.20;99175.23;4287395;82;21016;-92
2022/01/21 07:27:14;;;;;;;18.73;7.65;;;;;;;-3.33;85.37;99170.13;4279770;82;21090;-94
2022/01/21 11:42:10;;;;;;;35.70;13.63;;;;;;;-1.59;89.79;99148.75;4552741;77;22717;-84
2022/01/21 11:54:24;;;;;;;32.47;13.77;;;;;;;-1.27;89.79;99146.63;4469496;78;21034;-85
2022/01/21 12:00:34;;;;;;;25.23;11.00;;;;;;;-1.14;89.89;99131.11;4485470;78;21066;-84
2022/01/21 12:06:36;;;;;;;36.30;10.90;;;;;;;-0.84;90.27;99127.31;4475491;78;20995;-84
2022/01/21 12:13:01;;;;;;;22.58;8.95;;;;;;;-0.84;90.27;99127.31;4322430;78;35503;-84
2022/01/21 12:19:18;;;;;;;21.82;7.03;;;;;;;-0.68;89.86;99136.69;4183605;83;21597;-84
2022/01/21 12:25:12;;;;;;;18.77;6.05;;;;;;;-0.66;89.26;99138.52;4179565;83;21078;-83
2022/01/21 12:31:16;;;;;;;19.95;5.87;;;;;;;-0.66;88.67;99151.95;4182527;83;21006;-83
2022/01/21 12:37:26;;;;;;;15.13;4.92;;;;;;;-0.72;88.73;99153.72;4178929;83;21546;-85
2022/01/21 12:43:48;;;;;;;16.73;5.50;;;;;;;-0.70;88.26;99144.25;4186747;83;21030;-84
2022/01/21 12:49:53;;;;;;;16.87;5.92;;;;;;;-0.70;87.63;99138.88;4116071;83;21069;-83
2022/01/21 12:56:11;;;;;;;18.98;6.97;;;;;;;-0.70;87.64;99137.53;4135237;84;21156;-83
2022/01/21 13:02:25;;;;;;;20.20;6.08;;;;;;;-0.60;87.12;99133.31;4127425;84;21143;-84
2022/01/21 13:08:49;;;;;;;15.18;5.20;;;;;;;-0.40;86.44;99126.72;4127442;84;21087;-84
2022/01/21 13:14:55;;;;;;;11.12;3.37;;;;;;;-0.65;84.80;99119.16;4127264;83;21077;-85
2022/01/21 13:21:01;;;;;;;14.15;4.03;;;;;;;-0.65;84.80;99119.16;4123677;84;21708;-84
2022/01/21 13:27:03;;;;;;;8.83;3.62;;;;;;;-0.59;85.15;99152.38;4118751;84;21126;-83
2022/01/21 13:33:11;;;;;;;13.47;3.90;;;;;;;-0.69;84.23;99141.80;4125839;84;21882;-84
2022/01/21 13:39:20;;;;;;;14.03;4.55;;;;;;;-0.64;84.55;99143.62;4129077;84;21041;-86
2022/01/21 13:45:21;;;;;;;14.10;6.47;;;;;;;-0.89;83.69;99138.16;4127561;84;21055;-84
2022/01/21 13:51:22;;;;;;;16.25;7.90;;;;;;;-0.89;83.69;99138.16;4130927;84;21016;-85
2022/01/21 13:57:28;;;;;;;14.95;4.45;;;;;;;-1.01;83.62;99159.88;4128824;84;21042;-85
2022/01/21 14:03:38;;;;;;;16.03;4.43;;;;;;;-1.29;83.31;99130.81;4130949;84;21035;-85
2022/01/21 14:09:39;;;;;;;10.25;4.28;;;;;;;-1.20;83.58;99145.16;4119205;83;21055;-85
2022/01/21 14:15:41;;;;;;;13.22;4.03;;;;;;;-1.23;83.25;99162.40;4127855;84;21091;-85
2022/01/21 14:21:47;;;;;;;13.20;4.23;;;;;;;-1.29;83.41;99152.30;4120709;84;21483;-85
2022/01/21 14:27:51;;;;;;;13.08;4.92;;;;;;;-1.35;83.11;99162.07;4123881;84;21098;-85
2022/01/21 14:33:52;;;;;;;13.43;4.75;;;;;;;-1.43;82.65;99146.63;4129871;84;21055;-84
2022/01/21 14:39:53;;;;;;;13.20;4.65;;;;;;;-1.48;82.09;99153.41;4121099;84;21108;-84
2022/01/21 14:46:01;;;;;;;11.37;3.17;;;;;;;-1.49;81.47;99161.22;4116416;84;21102;-84
2022/01/21 14:52:49;;;;;;;16.07;4.45;;;;;;;-1.52;80.92;99155.09;4128444;84;21357;-86
2022/01/21 14:58:21;;;;;;;12.15;3.87;;;;;;;-1.60;80.73;99150.62;4099555;84;21192;-84
2022/01/21 15:04:22;;;;;;;9.93;3.10;;;;;;;-1.65;80.27;99149.38;4130481;83;21143;-86
2022/01/21 15:10:45;;;;;;;10.98;3.72;;;;;;;-1.71;80.37;99149.18;4118852;84;21436;-83
2022/01/21 15:16:46;;;;;;;14.75;5.25;;;;;;;-1.81;80.61;99152.56;4125753;84;21658;-84
2022/01/21 15:22:47;;;;;;;16.00;4.80;;;;;;;-1.86;80.62;99152.63;4119264;84;21110;-85
2022/01/21 15:28:52;;;;;;;16.63;4.13;;;;;;;-1.92;80.78;99149.77;4131281;83;21449;-84
2022/01/21 15:34:55;;;;;;;12.47;4.13;;;;;;;-1.95;80.15;99165.92;4042697;85;21021;-84
2022/01/21 15:40:57;;;;;;;14.90;5.10;;;;;;;-1.99;80.48;99177.52;4120166;84;21086;-84
2022/01/21 15:47:00;;;;;;;10.17;3.97;;;;;;;-2.23;81.57;99186.94;4126452;84;21591;-85
2022/01/21 15:53:01;;;;;;;8.60;3.37;;;;;;;-2.49;82.70;99179.48;4109479;84;21090;-85
2022/01/21 15:59:09;;;;;;;11.87;3.37;;;;;;;-2.69;83.35;99181.05;4145325;83;21477;-84
2022/01/21 16:05:10;;;;;;;10.73;4.13;;;;;;;-2.90;83.73;99193.03;4148337;83;21103;-84
2022/01/21 16:11:12;;;;;;;14.23;5.43;;;;;;;-3.09;83.75;99196.97;4153643;83;21071;-84
2022/01/21 16:17:13;;;;;;;12.07;4.83;;;;;;;-3.21;84.17;99199.22;4145493;83;21498;-84
2022/01/21 16:23:16;;;;;;;11.53;4.50;;;;;;;-3.24;84.35;99189.05;4048270;86;21047;-84
2022/01/21 16:29:17;;;;;;;10.67;4.20;;;;;;;-3.28;84.80;99198.73;4116640;84;21459;-84
2022/01/21 16:35:19;;;;;;;15.20;5.63;;;;;;;-3.39;84.88;99199.35;4125243;84;21115;-85
2022/01/21 16:41:21;;;;;;;14.30;6.50;;;;;;;-3.44;85.03;99214.11;4117431;84;21046;-85
2022/01/21 16:47:22;;;;;;;14.20;5.57;;;;;;;-3.40;85.67;99204.42;4125758;83;21552;-84
2022/01/21 16:53:25;;;;;;;15.53;5.60;;;;;;;-3.32;85.89;99203.05;4111623;84;21451;-85
2022/01/21 16:59:26;;;;;;;17.40;6.73;;;;;;;-3.25;85.61;99192.28;4126491;84;21066;-85
2022/01/21 17:05:29;;;;;;;22.97;8.30;;;;;;;-3.22;86.28;99201.62;4128844;84;21582;-84
2022/01/21 17:11:31;;;;;;;17.90;8.20;;;;;;;-3.17;85.83;99200.77;4117064;84;21782;-88
2022/01/21 17:17:33;;;;;;;25.93;9.27;;;;;;;-3.10;85.94;99211.41;4112819;84;21146;-84
2022/01/21 17:23:34;;;;;;;34.90;12.50;;;;;;;-3.05;86.32;99211.38;4122605;84;21011;-84
2022/01/21 17:29:36;;;;;;;30.83;13.43;;;;;;;-2.99;86.23;99202.21;4121316;84;21101;-84
2022/01/21 17:35:38;;;;;;;41.57;13.17;;;;;;;-2.94;86.42;99211.55;4116904;84;21516;-84
2022/01/21 17:41:39;;;;;;;32.10;12.53;;;;;;;-2.91;86.38;99208.86;4125096;83;21127;-84
2022/01/21 17:47:41;;;;;;;33.40;12.57;;;;;;;-2.83;86.39;99212.24;4122586;84;21036;-84
2022/01/21 17:53:44;;;;;;;40.50;15.43;;;;;;;-2.79;86.53;99208.74;4046829;86;21018;-83
2022/01/21 17:59:48;;;;;;;39.10;13.17;;;;;;;-2.75;86.71;99208.95;4127678;84;21027;-84
2022/01/21 18:05:49;;;;;;;31.80;12.50;;;;;;;-2.76;86.67;99198.80;4127098;84;21035;-83
2022/01/21 18:11:50;;;;;;;39.50;14.40;;;;;;;-2.75;86.97;99199.58;4126582;84;21071;-83
2022/01/21 18:17:52;;;;;;;35.90;13.67;;;;;;;-2.75;86.87;99200.38;4117552;84;22328;-85
2022/01/21 18:23:54;;;;;;;38.83;14.47;;;;;;;-2.74;87.03;99203.88;4126036;84;21110;-84
2022/01/21 18:29:55;;;;;;;40.37;13.93;;;;;;;-2.74;87.05;99210.57;4114153;84;21070;-84
2022/01/21 18:36:00;;;;;;;38.43;14.13;;;;;;;-2.75;87.08;99214.31;4127845;84;21003;-83
2022/01/21 18:42:03;;;;;;;31.30;13.60;;;;;;;-2.75;87.13;99200.91;4125325;84;21067;-85
2022/01/21 18:48:05;;;;;;;33.73;10.73;;;;;;;-2.76;87.13;99192.09;4106943;84;21029;-84
2022/01/21 18:54:07;;;;;;;30.83;12.20;;;;;;;-2.80;87.41;99196.97;4135316;84;21482;-84
2022/01/21 19:00:10;;;;;;;36.70;12.80;;;;;;;-2.79;87.54;99191.86;4118006;84;21044;-85
2022/01/21 19:06:13;;;;;;;32.43;12.47;;;;;;;-2.81;87.71;99188.13;4116382;84;21043;-83
2022/01/21 19:12:14;;;;;;;35.03;13.80;;;;;;;-2.82;87.68;99177.69;4112907;84;21039;-85
2022/01/21 19:18:17;;;;;;;32.67;13.80;;;;;;;-2.82;87.79;99179.84;4126306;84;21051;-85
2022/01/21 19:24:27;;;;;;;29.23;11.03;;;;;;;-2.80;87.87;99185.69;4136787;84;21011;-84
2022/01/21 19:30:28;;;;;;;32.13;13.50;;;;;;;-2.79;88.27;99184.63;4122189;84;21444;-85
2022/01/21 19:36:29;;;;;;;37.63;15.07;;;;;;;-2.78;88.38;99177.37;4123758;84;21059;-83
2022/01/21 19:42:32;;;;;;;31.73;12.40;;;;;;;-2.76;88.33;99175.22;4114596;84;21111;-84
